Rennerdale, Pennsylvania
Current Conditions -  °F | °C
As of 9:43 PM on Thursday 20 Nov 2014 (Local Time) from KPIT Reporting Station
Light Snow Light Snow  
Wind Chill: 11°   Ceiling: 3600
Heat Index: 22°   Visibility: 8mi
Dew Point: 18°   Wind: 10mph
Humidity: 85%   Direction: 270°W
Pressure: 30.1"   Gusts: NA
Location:  40.4095°N, 80.1154°W
Report Text: KPIT 210243Z 27009KT 8SM -SN SCT023 BKN036 OVC060 M06/M08 A3010 RMK AO2 P0000 T10561078
Loading
Personal Weather Stations






























Interactive Weather Map New forecast layout! Learn more

10-Day Weather Forecast

Advertisements
Track Severe Weather on mobile